createdAt,value
2023-02-11T00:02:19.690Z,27.7
2023-02-11T00:05:19.613Z,28.5
2023-02-11T00:08:19.631Z,28.3
2023-02-11T00:11:19.613Z,28.7
2023-02-11T00:14:19.627Z,29
2023-02-11T00:17:19.625Z,28.3
2023-02-11T00:20:19.648Z,29.3
2023-02-11T00:23:19.640Z,28.9
2023-02-11T00:26:19.647Z,29.3
2023-02-11T00:29:19.642Z,28.9
2023-02-11T00:32:19.644Z,29.2
2023-02-11T00:35:19.644Z,30.3
2023-02-11T00:38:19.678Z,29.8
2023-02-11T00:41:19.653Z,29.3
2023-02-11T00:44:19.678Z,29.6
2023-02-11T00:47:19.674Z,30
2023-02-11T00:50:19.682Z,29.9
2023-02-11T00:53:19.671Z,29.9
2023-02-11T00:56:19.699Z,29.4
2023-02-11T00:59:19.670Z,30.3
2023-02-11T01:02:19.678Z,30.1
2023-02-11T01:05:19.705Z,30.5
2023-02-11T01:08:19.694Z,30.7
2023-02-11T01:11:19.697Z,30.5
2023-02-11T01:14:19.726Z,31.2
2023-02-11T01:17:19.711Z,31.5
2023-02-11T01:20:19.709Z,31.7
2023-02-11T01:23:19.713Z,31.5
2023-02-11T01:26:19.719Z,30.9
2023-02-11T01:29:19.728Z,32
2023-02-11T01:32:19.793Z,31.9
2023-02-11T01:35:19.729Z,31.7
2023-02-11T01:38:19.729Z,31.8
2023-02-11T01:41:19.732Z,31.8
2023-02-11T01:44:19.743Z,33.1
2023-02-11T01:47:19.750Z,33.3
2023-02-11T01:50:19.770Z,33.5
2023-02-11T01:53:19.758Z,33.6
2023-02-11T01:56:19.762Z,33.3
2023-02-11T01:59:19.770Z,33.7
2023-02-11T02:02:19.783Z,33.3
2023-02-11T02:05:19.781Z,33.1
2023-02-11T02:08:19.803Z,33.7
2023-02-11T02:11:19.784Z,34.3
2023-02-11T02:14:19.795Z,34.4
2023-02-11T02:17:19.794Z,34.9
2023-02-11T02:20:19.799Z,33.9
2023-02-11T02:23:19.802Z,34.6
2023-02-11T02:26:19.823Z,34.2
2023-02-11T02:29:19.808Z,34.3
2023-02-11T02:32:19.805Z,34.9
2023-02-11T02:35:19.808Z,35.2
2023-02-11T02:38:19.812Z,34.3
2023-02-11T02:41:19.820Z,35.6
2023-02-11T02:44:19.844Z,35
2023-02-11T02:47:19.823Z,35.3
2023-02-11T02:50:19.836Z,35.1
2023-02-11T02:53:19.845Z,34.5
2023-02-11T02:56:19.838Z,35.7
2023-02-11T02:59:19.848Z,35.5
2023-02-11T03:02:19.869Z,37.1
2023-02-11T03:05:19.863Z,36.5
2023-02-11T03:08:19.854Z,36.6
2023-02-11T03:11:19.858Z,36.4
2023-02-11T03:14:19.862Z,37.5
2023-02-11T03:17:19.863Z,37.6
2023-02-11T03:20:19.897Z,37.7
2023-02-11T03:23:19.869Z,39
2023-02-11T03:26:19.870Z,38.8
2023-02-11T03:29:19.875Z,39
2023-02-11T03:32:19.923Z,39.1
2023-02-11T03:35:19.890Z,39.9
2023-02-11T03:38:19.917Z,39.6
2023-02-11T03:41:19.893Z,41.1
2023-02-11T03:44:19.905Z,40.6
2023-02-11T03:47:19.937Z,41
2023-02-11T03:50:19.909Z,41.1
2023-02-11T03:53:19.907Z,41.7
2023-02-11T03:56:19.948Z,42.3
2023-02-11T03:59:19.919Z,41.7
2023-02-11T04:02:19.930Z,42.6
2023-02-11T04:05:19.930Z,42.4
2023-02-11T04:08:19.921Z,43
2023-02-11T04:11:19.938Z,42.5
2023-02-11T04:14:19.960Z,41.8
2023-02-11T04:17:19.938Z,42.3
2023-02-11T04:20:19.934Z,41.5
2023-02-11T04:23:19.939Z,40.3
2023-02-11T04:26:19.939Z,41.6
2023-02-11T04:29:19.946Z,40.3
2023-02-11T04:32:20.023Z,40.5
2023-02-11T04:35:19.949Z,39.8
2023-02-11T04:38:19.956Z,39.5
2023-02-11T04:41:19.954Z,39.4
2023-02-11T04:44:19.961Z,39.9
2023-02-11T04:47:19.973Z,40.1
2023-02-11T04:50:19.990Z,40.2
2023-02-11T04:53:19.963Z,39.7
2023-02-11T04:56:19.961Z,39.5
2023-02-11T04:59:19.978Z,39.3
2023-02-11T05:02:20.002Z,39.4
2023-02-11T05:05:19.998Z,39
2023-02-11T05:08:20.050Z,38.1
2023-02-11T05:11:20.042Z,39.3
2023-02-11T05:14:20.044Z,38.7
2023-02-11T05:17:20.070Z,38.5
2023-02-11T05:20:20.057Z,37.8
2023-02-11T05:23:20.063Z,38.8
2023-02-11T05:26:20.096Z,37.8
2023-02-11T05:29:20.085Z,38.7
2023-02-11T05:32:20.120Z,38.6
2023-02-11T05:35:20.100Z,38.8
2023-02-11T05:38:20.100Z,38.8
2023-02-11T05:41:20.106Z,39.9
2023-02-11T05:44:20.130Z,39.8
2023-02-11T05:47:20.126Z,40.6
2023-02-11T05:50:20.125Z,40
2023-02-11T05:53:20.128Z,40.3
2023-02-11T05:56:20.133Z,41.5
2023-02-11T05:59:20.146Z,41.1
2023-02-11T06:02:20.228Z,40.8
2023-02-11T06:05:20.164Z,40.5
2023-02-11T06:08:20.145Z,40.3
2023-02-11T06:11:20.158Z,39.8
2023-02-11T06:14:20.161Z,39.7
2023-02-11T06:17:20.156Z,40.1
2023-02-11T06:20:20.196Z,40.1
2023-02-11T06:23:20.161Z,40.7
2023-02-11T06:26:20.163Z,38.9
2023-02-11T06:29:20.167Z,39.1
2023-02-11T06:32:37.225Z,39
2023-02-11T06:35:20.196Z,38.7
2023-02-11T06:38:20.212Z,38.9
2023-02-11T06:41:20.185Z,38.7
2023-02-11T06:44:20.197Z,37.7
2023-02-11T06:47:20.199Z,38.4
2023-02-11T06:50:20.194Z,38.1
2023-02-11T06:53:20.196Z,37.5
2023-02-11T06:56:20.232Z,36.2
2023-02-11T06:59:20.206Z,35.8
2023-02-11T07:02:21.063Z,36.3
2023-02-11T07:05:20.219Z,35.8
2023-02-11T07:08:20.218Z,35.1
2023-02-11T07:11:20.220Z,34.6
2023-02-11T07:14:20.251Z,34.7
2023-02-11T07:17:20.239Z,34.2
2023-02-11T07:20:20.231Z,34.1
2023-02-11T07:23:20.251Z,33.7
2023-02-11T07:26:20.246Z,33.4
2023-02-11T07:29:20.248Z,33.2
2023-02-11T07:32:20.537Z,32.6
2023-02-11T07:35:20.261Z,33.1
2023-02-11T07:38:20.263Z,33.1
2023-02-11T07:41:20.264Z,31.7
2023-02-11T07:44:20.281Z,32
2023-02-11T07:47:20.298Z,31.7
2023-02-11T07:50:20.304Z,31.4
2023-02-11T07:53:20.290Z,31
2023-02-11T07:56:20.291Z,32.2
2023-02-11T07:59:20.301Z,31.2
2023-02-11T08:02:20.373Z,31.1
2023-02-11T08:05:20.297Z,30.7
2023-02-11T08:08:20.325Z,31.4
2023-02-11T08:11:20.308Z,30.7
2023-02-11T08:14:20.316Z,31.4
2023-02-11T08:17:20.318Z,30.6
2023-02-11T08:20:20.322Z,30.7
2023-02-11T08:23:20.317Z,30.7
2023-02-11T08:26:20.348Z,30.8
2023-02-11T08:29:20.331Z,30.7
2023-02-11T08:32:20.396Z,29.5
2023-02-11T08:35:20.336Z,29.3
2023-02-11T08:38:20.357Z,28.8
2023-02-11T08:41:20.344Z,29.3
2023-02-11T08:44:20.388Z,28.9
2023-02-11T08:47:20.369Z,29.4
2023-02-11T08:50:20.363Z,28.2
2023-02-11T08:53:20.371Z,28.8
2023-02-11T08:56:20.375Z,27.8
2023-02-11T08:59:20.476Z,27.5
2023-02-11T09:02:20.483Z,26.9
2023-02-11T09:05:20.389Z,27.1
2023-02-11T09:08:20.394Z,27.6
2023-02-11T09:11:20.409Z,27.3
2023-02-11T09:14:20.433Z,27.3
2023-02-11T09:17:20.417Z,27.2
2023-02-11T09:20:20.437Z,27.7
2023-02-11T09:23:20.423Z,27.9
2023-02-11T09:26:20.420Z,26.7
2023-02-11T09:29:20.427Z,27.2
2023-02-11T09:32:20.462Z,27.4
2023-02-11T09:35:20.445Z,27.8
2023-02-11T09:38:20.487Z,26.6
2023-02-11T09:41:20.444Z,27.1
2023-02-11T09:44:20.444Z,27.3
2023-02-11T09:47:20.460Z,27.7
2023-02-11T09:50:20.455Z,26.7
2023-02-11T09:53:20.470Z,27.7
2023-02-11T09:56:20.501Z,27.9
2023-02-11T09:59:20.610Z,28.9
2023-02-11T10:02:20.566Z,28.1
2023-02-11T10:05:20.501Z,29
2023-02-11T10:08:20.517Z,28.1
2023-02-11T10:11:31.141Z,27.7
2023-02-11T10:14:20.557Z,29
2023-02-11T10:17:20.548Z,29.3
2023-02-11T10:20:20.502Z,28.6
2023-02-11T10:23:20.500Z,28.7
2023-02-11T10:26:20.497Z,28.9
2023-02-11T10:29:20.510Z,29.2
2023-02-11T10:32:20.554Z,28.2
2023-02-11T10:35:20.513Z,27.9
2023-02-11T10:38:20.517Z,27.6
2023-02-11T10:41:20.522Z,28.1
2023-02-11T10:44:20.525Z,26.6
2023-02-11T10:47:20.547Z,27.1
2023-02-11T10:50:20.565Z,26.7
2023-02-11T10:53:20.617Z,27.4
2023-02-11T10:56:20.536Z,28.2
2023-02-11T10:59:21.643Z,28
2023-02-11T11:02:20.555Z,28.2
2023-02-11T11:05:20.552Z,28.6
2023-02-11T11:08:20.580Z,28.1
2023-02-11T11:11:20.562Z,27.7
2023-02-11T11:14:20.571Z,28.2
2023-02-11T11:17:20.573Z,27.5
2023-02-11T11:20:20.568Z,28.1
2023-02-11T11:23:20.581Z,27.2
2023-02-11T11:26:20.603Z,27
2023-02-11T11:29:20.582Z,27.9
2023-02-11T11:32:20.862Z,27.2
2023-02-11T11:35:20.586Z,26.7
2023-02-11T11:38:20.591Z,26.8
2023-02-11T11:41:20.613Z,26.7
2023-02-11T11:44:20.661Z,26.6
2023-02-11T11:47:20.624Z,27.2
2023-02-11T11:50:21.226Z,25.7
2023-02-11T11:53:20.611Z,25.7
2023-02-11T11:56:20.617Z,25.8
2023-02-11T11:59:20.635Z,25.7
2023-02-11T12:02:20.779Z,24.8
2023-02-11T12:05:20.694Z,24.4
2023-02-11T12:08:20.700Z,24.6
2023-02-11T12:11:20.701Z,23.9
2023-02-11T12:14:20.698Z,23.6
2023-02-11T12:17:20.731Z,22.9
2023-02-11T12:20:20.734Z,23.1
2023-02-11T12:23:20.708Z,22.9
2023-02-11T12:26:20.716Z,22.3
2023-02-11T12:29:20.726Z,22.3
2023-02-11T12:32:20.740Z,22.8
2023-02-11T12:35:20.715Z,21.9
2023-02-11T12:38:20.742Z,22.8
2023-02-11T12:41:20.728Z,22.8
2023-02-11T12:44:20.715Z,22.8
2023-02-11T12:47:20.733Z,22.6
2023-02-11T12:50:20.723Z,23.1
2023-02-11T12:53:20.727Z,21.7
2023-02-11T12:56:20.748Z,21.9
2023-02-11T12:59:20.728Z,22.8
2023-02-11T13:02:20.770Z,21.5
2023-02-11T13:05:20.747Z,21.5
2023-02-11T13:08:20.728Z,21.9
2023-02-11T13:11:20.732Z,21.6
2023-02-11T13:14:20.760Z,21.6
2023-02-11T13:17:20.742Z,22.6
2023-02-11T13:20:20.736Z,23
2023-02-11T13:23:20.737Z,22.1
2023-02-11T13:26:20.740Z,23.2
2023-02-11T13:29:20.739Z,21.9
2023-02-11T13:32:20.779Z,22
2023-02-11T13:35:20.744Z,22.2
2023-02-11T13:38:20.752Z,21.5
2023-02-11T13:41:20.757Z,22.3
2023-02-11T13:44:20.746Z,22
2023-02-11T13:47:20.763Z,22.4
2023-02-11T13:50:20.783Z,21.4
2023-02-11T13:53:20.752Z,22
2023-02-11T13:56:20.755Z,20.9
2023-02-11T13:59:20.758Z,21.3
2023-02-11T14:02:20.940Z,22.2
2023-02-11T14:05:20.761Z,20.5
2023-02-11T14:08:20.785Z,20.8
2023-02-11T14:11:20.769Z,20.5
2023-02-11T14:14:20.768Z,20.8
2023-02-11T14:17:20.823Z,20.4
2023-02-11T14:20:20.928Z,20.9
2023-02-11T14:23:20.784Z,21
2023-02-11T14:26:20.812Z,21
2023-02-11T14:29:20.787Z,20.3
2023-02-11T14:32:20.801Z,20.1
2023-02-11T14:35:20.802Z,20.9
2023-02-11T14:38:20.796Z,20
2023-02-11T14:41:20.798Z,20.6
2023-02-11T14:44:20.830Z,20.5
2023-02-11T14:47:20.817Z,20.9
2023-02-11T14:50:20.810Z,21.5
2023-02-11T14:53:20.814Z,21
2023-02-11T14:56:20.813Z,23.8
2023-02-11T14:59:20.825Z,23
2023-02-11T15:02:20.940Z,22.3
2023-02-11T15:05:20.829Z,22.9
2023-02-11T15:08:20.835Z,23.2
2023-02-11T15:11:20.840Z,23.8
2023-02-11T15:14:20.843Z,24.4
2023-02-11T15:17:20.847Z,23.7
2023-02-11T15:20:20.863Z,24.2
2023-02-11T15:23:20.855Z,24.4
2023-02-11T15:26:20.857Z,23.6
2023-02-11T15:29:20.857Z,24
2023-02-11T15:32:20.983Z,23.9
2023-02-11T15:35:20.874Z,24.2
2023-02-11T15:38:20.888Z,23.9
2023-02-11T15:41:20.873Z,23.8
2023-02-11T15:44:20.884Z,22.9
2023-02-11T15:47:20.907Z,23.3
2023-02-11T15:50:20.901Z,21.9
2023-02-11T15:53:20.900Z,22.7
2023-02-11T15:56:20.928Z,22.9
2023-02-11T15:59:20.909Z,22.1
2023-02-11T16:02:20.923Z,22.2
2023-02-11T16:05:20.917Z,22.3
2023-02-11T16:08:20.941Z,22
2023-02-11T16:11:20.934Z,22.3
2023-02-11T16:14:20.964Z,21.3
2023-02-11T16:17:20.986Z,21.9
2023-02-11T16:20:20.974Z,22.5
2023-02-11T16:23:20.962Z,21.5
2023-02-11T16:26:20.980Z,22.1
2023-02-11T16:29:20.970Z,21.9
2023-02-11T16:32:21.018Z,23.5
2023-02-11T16:35:21.003Z,22.5
2023-02-11T16:38:21.003Z,22.5
2023-02-11T16:41:21.005Z,23.3
2023-02-11T16:44:21.008Z,22.9
2023-02-11T16:47:21.033Z,23.5
2023-02-11T16:50:21.041Z,23.4
2023-02-11T16:53:21.038Z,24.3
2023-02-11T16:56:21.037Z,25.8
2023-02-11T16:59:21.039Z,25.3
2023-02-11T17:02:23.600Z,25.7
2023-02-11T17:05:21.042Z,26
2023-02-11T17:08:21.080Z,26.2
2023-02-11T17:11:21.056Z,26.4
2023-02-11T17:14:21.065Z,27.2
2023-02-11T17:17:21.078Z,27.4
2023-02-11T17:20:21.093Z,28.4
2023-02-11T17:23:21.080Z,27.9
2023-02-11T17:26:21.104Z,28.5
2023-02-11T17:29:21.084Z,29.6
2023-02-11T17:32:21.202Z,29.9
2023-02-11T17:35:21.086Z,29.6
2023-02-11T17:38:21.093Z,30.6
2023-02-11T17:41:21.090Z,29.8
2023-02-11T17:44:21.126Z,30.7
2023-02-11T17:47:21.112Z,29
2023-02-11T17:50:21.109Z,30
2023-02-11T17:53:21.109Z,30.6
2023-02-11T17:56:21.108Z,30.5
2023-02-11T17:59:21.110Z,29.4
2023-02-11T18:02:21.156Z,29.5
2023-02-11T18:05:21.118Z,30.1
2023-02-11T18:08:21.123Z,30.5
2023-02-11T18:11:21.129Z,31
2023-02-11T18:14:21.128Z,31
2023-02-11T18:17:21.132Z,31.9
2023-02-11T18:20:21.148Z,32.1
2023-02-11T18:23:21.132Z,30.3
2023-02-11T18:26:21.140Z,31
2023-02-11T18:29:21.138Z,30.6
2023-02-11T18:32:21.154Z,30.3
2023-02-11T18:35:21.146Z,29.6
2023-02-11T18:38:21.178Z,30.6
2023-02-11T18:41:21.158Z,30.6
2023-02-11T18:44:21.156Z,30.1
2023-02-11T18:47:21.179Z,29.1
2023-02-11T18:50:21.156Z,29.1
2023-02-11T18:53:21.157Z,30.5
2023-02-11T18:56:21.189Z,29.4
2023-02-11T18:59:21.164Z,29.7
2023-02-11T19:02:21.166Z,28.4
2023-02-11T19:05:21.156Z,30
2023-02-11T19:08:21.168Z,35.3
2023-02-11T19:11:21.170Z,31.3
2023-02-11T19:14:21.206Z,31.7
2023-02-11T19:17:21.202Z,31.5
2023-02-11T19:20:21.184Z,30.7
2023-02-11T19:23:21.197Z,32.9
2023-02-11T19:26:21.204Z,30.1
2023-02-11T19:29:21.233Z,30.8
2023-02-11T19:32:21.256Z,29.4
2023-02-11T19:35:21.224Z,28.2
2023-02-11T19:38:21.226Z,29.2
2023-02-11T19:41:21.228Z,29.2
2023-02-11T19:44:21.260Z,28.8
2023-02-11T19:47:21.253Z,28.8
2023-02-11T19:50:21.268Z,30
2023-02-11T19:53:21.272Z,29.5
2023-02-11T19:56:21.264Z,29
2023-02-11T19:59:21.268Z,28.5
2023-02-11T20:02:21.318Z,28.1
2023-02-11T20:05:21.296Z,27.8
2023-02-11T20:08:21.315Z,27.9
2023-02-11T20:11:21.315Z,27.7
2023-02-11T20:14:21.307Z,28.3
2023-02-11T20:17:21.311Z,28.1
2023-02-11T20:20:21.316Z,28.5
2023-02-11T20:23:21.318Z,28.2
2023-02-11T20:26:21.342Z,28.4
2023-02-11T20:29:21.328Z,27.6
2023-02-11T20:32:21.500Z,28.1
2023-02-11T20:35:21.329Z,26.9
2023-02-11T20:38:21.395Z,27.5
2023-02-11T20:41:21.347Z,27.1
2023-02-11T20:44:21.384Z,26.5
2023-02-11T20:47:21.379Z,26.7
2023-02-11T20:50:21.363Z,26.5
2023-02-11T20:53:21.374Z,26.3
2023-02-11T20:56:21.385Z,25.9
2023-02-11T20:59:21.383Z,25.5
2023-02-11T21:02:24.355Z,26.2
2023-02-11T21:05:21.395Z,25.7
2023-02-11T21:08:21.402Z,25.8
2023-02-11T21:11:21.404Z,24.7
2023-02-11T21:14:21.406Z,25.1
2023-02-11T21:17:21.595Z,24.6
2023-02-11T21:20:21.626Z,24.9
2023-02-11T21:23:21.428Z,24.3
2023-02-11T21:26:21.430Z,24.4
2023-02-11T21:29:21.433Z,24.4
2023-02-11T21:32:21.455Z,24.6
2023-02-11T21:35:21.685Z,24.5
2023-02-11T21:38:21.502Z,25.1
2023-02-11T21:41:21.446Z,24
2023-02-11T21:44:21.448Z,24.9
2023-02-11T21:47:21.465Z,23.2
2023-02-11T21:50:21.631Z,23.4
2023-02-11T21:53:21.472Z,23
2023-02-11T21:56:21.495Z,23.4
2023-02-11T21:59:21.480Z,22.5
2023-02-11T22:02:21.496Z,22.4
2023-02-11T22:05:21.489Z,22.1
2023-02-11T22:08:21.487Z,22.1
2023-02-11T22:11:21.502Z,21.6
2023-02-11T22:14:21.546Z,21.4
2023-02-11T22:17:21.532Z,21.4
2023-02-11T22:20:21.517Z,20.5
2023-02-11T22:23:21.517Z,20.7
2023-02-11T22:26:21.530Z,21.3
2023-02-11T22:29:21.527Z,20.6
2023-02-11T22:32:21.596Z,21.9
2023-02-11T22:35:21.530Z,21.6
2023-02-11T22:38:21.538Z,20.3
2023-02-11T22:41:21.543Z,20.2
2023-02-11T22:44:21.542Z,19.5
2023-02-11T22:47:21.552Z,19
2023-02-11T22:50:21.580Z,19.8
2023-02-11T22:53:21.549Z,19
2023-02-11T22:56:21.563Z,18.3
2023-02-11T22:59:21.565Z,18.6
2023-02-11T23:02:21.738Z,19.4
2023-02-11T23:05:21.569Z,18.4
2023-02-11T23:08:21.594Z,17.6
2023-02-11T23:11:21.577Z,17.4
2023-02-11T23:14:21.581Z,16.8
2023-02-11T23:17:21.589Z,16.3
2023-02-11T23:20:21.585Z,14.9
2023-02-11T23:23:21.595Z,15.5
2023-02-11T23:26:21.614Z,15.7
2023-02-11T23:29:21.593Z,14.6
2023-02-11T23:32:21.659Z,15.5
2023-02-11T23:35:21.601Z,14.3
2023-02-11T23:38:21.610Z,14.4
2023-02-11T23:41:21.633Z,13.8
2023-02-11T23:44:21.649Z,13.2
2023-02-11T23:47:21.640Z,13.1
2023-02-11T23:50:21.631Z,12.9
2023-02-11T23:53:21.643Z,12.9
2023-02-11T23:56:21.642Z,12.7
2023-02-11T23:59:21.643Z,13
